Time;durP1;ratioP1;P1;durP2;ratioP2;P2;SDS_P1;SDS_P2;PMS_P1;PMS_P2;Temp;Humidity;BMP_temperature;BMP_pressure;BME280_temperature;BME280_humidity;BME280_pressure;Samples;Min_cycle;Max_cycle;Signal;HPM_P1;HPM_P2
2021/12/01 00:00:54;;;;;;;8.15;2.22;;;6.00;99.90;;;;;;5102963;28;20201;-73
2021/12/01 00:03:23;;;;;;;6.53;3.00;;;6.00;99.90;;;;;;5102988;28;20343;-69
2021/12/01 00:05:52;;;;;;;6.35;2.70;;;6.10;99.90;;;;;;5103960;28;20196;-70
2021/12/01 00:08:21;;;;;;;8.82;3.35;;;6.20;99.90;;;;;;5105794;28;20224;-71
2021/12/01 00:10:49;;;;;;;9.25;2.92;;;6.10;99.90;;;;;;5103741;28;20265;-72
2021/12/01 00:13:19;;;;;;;8.40;2.78;;;6.20;99.90;;;;;;5104444;28;20316;-72
2021/12/01 00:15:49;;;;;;;3.28;2.60;;;6.20;99.90;;;;;;5106670;28;20679;-73
2021/12/01 00:18:17;;;;;;;8.02;3.33;;;6.20;99.90;;;;;;5116894;28;20222;-71
2021/12/01 00:20:46;;;;;;;10.70;3.40;;;6.30;99.90;;;;;;5118572;28;20214;-70
2021/12/01 00:23:15;;;;;;;9.65;3.00;;;6.30;99.90;;;;;;5114406;28;20218;-69
2021/12/01 00:25:44;;;;;;;5.07;3.40;;;6.30;99.90;;;;;;5103479;28;20275;-70
2021/12/01 00:28:12;;;;;;;11.48;3.08;;;6.40;99.90;;;;;;5101088;28;20232;-69
2021/12/01 00:30:41;;;;;;;14.32;3.15;;;6.40;99.90;;;;;;5100597;28;20286;-69
2021/12/01 00:33:13;;;;;;;3.55;2.38;;;6.40;99.90;;;;;;5110867;28;20282;-72
2021/12/01 00:35:42;;;;;;;8.52;2.50;;;6.50;99.90;;;;;;5124018;28;20238;-70
2021/12/01 00:38:10;;;;;;;10.82;3.13;;;6.50;99.90;;;;;;5105128;28;20353;-70
2021/12/01 00:40:39;;;;;;;7.90;2.30;;;6.50;99.90;;;;;;5100987;28;20775;-70
2021/12/01 00:43:15;;;;;;;8.75;2.53;;;6.50;99.90;;;;;;5100777;28;20818;-70
2021/12/01 00:45:49;;;;;;;6.88;2.58;;;6.50;99.90;;;;;;5100739;28;20200;-70
2021/12/01 00:48:18;;;;;;;4.95;2.97;;;6.50;99.90;;;;;;5101639;28;20227;-70
2021/12/01 00:50:47;;;;;;;6.63;2.30;;;6.50;99.90;;;;;;5100893;28;20763;-70
2021/12/01 00:53:15;;;;;;;5.22;3.22;;;6.50;99.90;;;;;;5101027;28;20281;-72
2021/12/01 00:55:45;;;;;;;15.05;3.83;;;6.50;99.90;;;;;;5101740;28;20270;-71
2021/12/01 00:58:14;;;;;;;12.73;3.00;;;6.50;99.90;;;;;;5100716;27;20207;-72
2021/12/01 01:00:43;;;;;;;12.95;4.05;;;6.50;99.90;;;;;;5101367;28;20748;-72
2021/12/01 01:03:12;;;;;;;9.68;3.50;;;6.40;99.90;;;;;;5100750;28;20256;-71
2021/12/01 01:05:40;;;;;;;9.02;3.67;;;6.40;99.90;;;;;;5100753;28;20203;-70
2021/12/01 01:08:10;;;;;;;9.82;4.15;;;6.30;99.90;;;;;;5100890;28;20248;-70
2021/12/01 01:16:25;;;;;;;10.43;4.22;;;6.30;99.90;;;;;;5100856;28;20203;-71
2021/12/01 01:18:58;;;;;;;14.38;4.35;;;6.10;99.90;;;;;;5100345;28;20216;-70
2021/12/01 01:21:29;;;;;;;8.68;4.63;;;6.10;99.90;;;;;;5100889;28;20279;-70
2021/12/01 01:23:57;;;;;;;9.13;3.90;;;6.10;99.90;;;;;;5100902;28;20253;-71
2021/12/01 01:26:26;;;;;;;12.80;4.13;;;6.10;99.90;;;;;;5101438;28;20260;-71
2021/12/01 01:28:55;;;;;;;7.25;3.38;;;6.20;99.90;;;;;;5101543;28;20220;-71
2021/12/01 01:31:24;;;;;;;9.32;4.65;;;6.10;99.90;;;;;;5102206;28;20251;-71
2021/12/01 01:33:52;;;;;;;12.55;5.00;;;6.20;99.90;;;;;;5101591;28;20260;-72
2021/12/01 01:36:21;;;;;;;7.05;2.88;;;6.20;99.90;;;;;;5102077;28;20216;-72
2021/12/01 01:38:49;;;;;;;9.32;4.35;;;6.20;99.90;;;;;;5101600;27;20247;-72
2021/12/01 01:41:17;;;;;;;10.23;4.28;;;6.20;99.90;;;;;;5100196;28;20282;-72
2021/12/01 01:43:48;;;;;;;8.18;3.63;;;6.10;99.90;;;;;;5099367;28;20671;-71
2021/12/01 01:46:17;;;;;;;11.25;3.65;;;6.10;99.90;;;;;;5100623;28;20261;-74
2021/12/01 01:48:50;;;;;;;10.98;3.90;;;6.10;99.90;;;;;;5102299;28;20215;-71
2021/12/01 01:51:21;;;;;;;10.57;4.38;;;6.10;99.90;;;;;;5100762;28;20204;-71
2021/12/01 01:53:51;;;;;;;13.50;3.92;;;6.10;99.90;;;;;;5099740;28;20260;-71
2021/12/01 01:56:19;;;;;;;10.32;3.60;;;6.10;99.90;;;;;;5099244;28;20269;-71
2021/12/01 01:58:47;;;;;;;8.80;4.05;;;6.10;99.90;;;;;;5099543;28;20215;-70
2021/12/01 02:01:32;;;;;;;7.60;4.15;;;6.00;99.90;;;;;;5099548;28;20229;-70
2021/12/01 02:04:00;;;;;;;8.32;4.00;;;6.00;99.90;;;;;;5099503;28;20213;-69
2021/12/01 02:06:28;;;;;;;7.80;3.60;;;6.00;99.90;;;;;;5099584;28;20200;-71
2021/12/01 02:08:58;;;;;;;13.50;4.10;;;6.00;99.90;;;;;;5099330;28;20685;-71
2021/12/01 02:11:27;;;;;;;14.30;4.68;;;5.90;99.90;;;;;;5098968;28;20278;-71
2021/12/01 02:13:56;;;;;;;10.60;4.28;;;6.00;99.90;;;;;;5104536;28;20192;-72
2021/12/01 02:16:26;;;;;;;8.10;4.00;;;5.90;99.90;;;;;;5103811;28;20219;-70
2021/12/01 02:18:55;;;;;;;14.15;4.90;;;6.00;99.90;;;;;;5099756;28;20268;-70
2021/12/01 02:21:27;;;;;;;10.13;4.18;;;6.00;99.90;;;;;;5099224;27;20194;-70
2021/12/01 02:23:57;;;;;;;11.00;3.95;;;6.00;99.90;;;;;;5099340;28;20260;-72
2021/12/01 02:26:26;;;;;;;8.73;3.88;;;5.90;99.90;;;;;;5098851;28;20237;-69
2021/12/01 02:28:59;;;;;;;9.82;4.50;;;5.90;99.90;;;;;;5099089;28;20262;-71
2021/12/01 02:31:33;;;;;;;10.43;5.20;;;5.90;99.90;;;;;;5098971;28;20286;-71
2021/12/01 02:34:02;;;;;;;8.70;4.32;;;5.90;99.90;;;;;;5099155;28;20286;-71
2021/12/01 02:36:31;;;;;;;6.13;3.50;;;5.90;99.90;;;;;;5099644;28;20677;-70
2021/12/01 02:38:59;;;;;;;8.10;5.15;;;6.00;99.90;;;;;;5098832;28;20247;-71
2021/12/01 02:41:29;;;;;;;6.80;4.45;;;5.90;99.90;;;;;;5099041;28;20282;-69
2021/12/01 02:43:57;;;;;;;10.63;4.45;;;5.90;99.90;;;;;;5098887;28;20283;-72
2021/12/01 02:46:26;;;;;;;9.65;4.40;;;6.00;99.90;;;;;;5099533;28;20295;-71
2021/12/01 02:48:55;;;;;;;5.82;3.53;;;6.10;99.90;;;;;;5099979;28;20301;-71
2021/12/01 02:51:26;;;;;;;4.00;3.60;;;6.10;99.90;;;;;;5099988;28;20306;-70
2021/12/01 02:53:57;;;;;;;10.75;3.97;;;6.10;99.90;;;;;;5099828;28;20200;-70
2021/12/01 02:56:25;;;;;;;7.32;3.92;;;6.00;99.90;;;;;;5120097;28;20211;-71
2021/12/01 02:58:53;;;;;;;7.13;4.45;;;6.00;99.90;;;;;;5120343;28;20215;-69
2021/12/01 03:01:23;;;;;;;8.15;3.72;;;5.90;99.90;;;;;;5098470;28;20909;-72
2021/12/01 03:03:53;;;;;;;8.50;3.72;;;5.90;99.90;;;;;;5098285;28;20204;-73
2021/12/01 03:06:25;;;;;;;4.03;3.17;;;5.80;99.90;;;;;;5098435;28;20328;-73
2021/12/01 03:08:54;;;;;;;6.07;3.58;;;5.80;99.90;;;;;;5098447;28;20211;-74
2021/12/01 03:11:24;;;;;;;3.38;2.75;;;5.80;99.90;;;;;;5098670;28;20211;-72
2021/12/01 03:13:53;;;;;;;5.20;3.00;;;5.80;99.90;;;;;;5097784;28;20835;-71
2021/12/01 03:16:21;;;;;;;4.65;2.58;;;5.80;99.90;;;;;;5098851;28;20860;-71
2021/12/01 03:18:49;;;;;;;4.53;2.70;;;5.90;99.90;;;;;;5098179;28;20220;-73
2021/12/01 03:21:17;;;;;;;3.55;2.10;;;5.90;99.90;;;;;;5106868;28;20642;-70
2021/12/01 03:23:46;;;;;;;2.95;2.25;;;5.90;99.90;;;;;;5107723;28;20314;-70
2021/12/01 03:26:14;;;;;;;3.95;2.20;;;5.90;99.90;;;;;;5115843;28;20252;-72
2021/12/01 03:28:43;;;;;;;5.78;2.38;;;6.00;99.90;;;;;;5118173;28;20215;-70
2021/12/01 03:31:11;;;;;;;2.55;1.88;;;5.90;99.90;;;;;;5124632;28;20246;-71
2021/12/01 03:33:39;;;;;;;3.67;2.25;;;5.90;99.90;;;;;;5118171;28;20269;-71
2021/12/01 03:36:07;;;;;;;2.42;2.10;;;6.00;99.90;;;;;;5107600;28;20227;-70
2021/12/01 03:38:35;;;;;;;2.15;2.00;;;5.90;99.90;;;;;;5102317;28;20212;-70
2021/12/01 03:41:03;;;;;;;2.35;1.90;;;6.00;99.90;;;;;;5099355;28;20204;-70
2021/12/01 03:43:31;;;;;;;2.78;2.05;;;6.00;99.90;;;;;;5098668;28;20255;-70
2021/12/01 03:46:00;;;;;;;2.13;1.70;;;6.00;99.90;;;;;;5098799;28;20204;-74
2021/12/01 03:48:28;;;;;;;1.90;1.80;;;5.90;99.90;;;;;;5098648;28;20247;-72
2021/12/01 03:50:57;;;;;;;3.95;2.38;;;5.90;99.90;;;;;;5099234;28;20207;-72
2021/12/01 03:53:27;;;;;;;2.25;2.15;;;5.90;99.90;;;;;;5099068;28;20227;-72
2021/12/01 03:55:55;;;;;;;2.78;2.45;;;6.00;99.90;;;;;;5099604;28;20248;-72
2021/12/01 03:58:23;;;;;;;4.07;2.80;;;6.00;99.90;;;;;;5099271;28;20302;-72
2021/12/01 04:00:51;;;;;;;2.30;2.10;;;6.00;99.90;;;;;;5098804;28;20206;-72
2021/12/01 04:03:21;;;;;;;2.58;2.38;;;6.00;99.90;;;;;;5098706;28;20742;-71
2021/12/01 04:05:48;;;;;;;2.40;2.30;;;6.00;99.90;;;;;;5099364;28;20623;-72
2021/12/01 04:08:16;;;;;;;3.58;2.35;;;6.00;99.90;;;;;;5102452;27;20302;-71
2021/12/01 04:10:44;;;;;;;2.63;2.42;;;6.00;99.90;;;;;;5103401;28;20215;-72
2021/12/01 04:13:12;;;;;;;3.78;2.85;;;6.00;99.90;;;;;;5107863;28;20255;-72
2021/12/01 04:15:40;;;;;;;2.10;1.90;;;6.00;99.90;;;;;;5113182;28;20271;-72
2021/12/01 04:18:08;;;;;;;2.60;2.40;;;6.00;99.90;;;;;;5118218;28;20195;-73
2021/12/01 04:20:37;;;;;;;2.60;2.30;;;6.00;99.90;;;;;;5109313;28;20216;-72
2021/12/01 04:23:05;;;;;;;2.20;2.10;;;6.10;99.90;;;;;;5104900;28;20800;-72
2021/12/01 04:25:34;;;;;;;3.45;3.25;;;6.10;99.90;;;;;;5102223;28;20208;-72
2021/12/01 04:28:02;;;;;;;2.10;2.00;;;6.00;99.90;;;;;;5101700;28;20202;-71
2021/12/01 04:30:30;;;;;;;2.08;1.98;;;6.00;99.90;;;;;;5101732;28;20792;-70
2021/12/01 04:32:58;;;;;;;2.03;1.92;;;6.00;99.90;;;;;;5102297;28;20238;-71
2021/12/01 04:35:28;;;;;;;2.70;2.50;;;6.00;99.90;;;;;;5102242;28;20207;-71
2021/12/01 04:37:58;;;;;;;2.83;2.63;;;6.00;99.90;;;;;;5102512;28;20603;-72
2021/12/01 04:40:26;;;;;;;3.83;2.78;;;6.10;99.90;;;;;;5101917;28;20290;-73
2021/12/01 04:42:54;;;;;;;2.22;2.03;;;6.20;99.90;;;;;;5103086;28;20295;-73
2021/12/01 04:45:25;;;;;;;2.08;1.95;;;6.10;99.90;;;;;;5102832;27;20215;-73
2021/12/01 04:47:55;;;;;;;2.80;2.42;;;6.10;99.90;;;;;;5102363;28;20192;-74
2021/12/01 04:50:26;;;;;;;2.90;2.70;;;6.10;99.90;;;;;;5101659;28;20216;-73
2021/12/01 04:52:55;;;;;;;2.40;2.20;;;6.10;99.90;;;;;;5101081;28;20369;-73
2021/12/01 04:55:28;;;;;;;2.53;2.33;;;6.10;99.90;;;;;;5101504;28;20204;-73
2021/12/01 04:57:56;;;;;;;3.13;2.78;;;6.20;99.90;;;;;;5101191;28;20776;-73
2021/12/01 05:00:27;;;;;;;2.20;2.10;;;6.20;99.90;;;;;;5100487;28;20319;-72
2021/12/01 05:02:56;;;;;;;2.50;2.30;;;6.20;99.90;;;;;;5101543;28;20218;-73
2021/12/01 05:05:43;;;;;;;2.45;2.25;;;6.20;99.90;;;;;;5101733;28;20278;-73
2021/12/01 05:08:12;;;;;;;2.53;2.33;;;6.20;99.90;;;;;;5101632;28;20913;-73
2021/12/01 05:10:41;;;;;;;3.50;2.40;;;6.20;99.90;;;;;;5101626;28;20307;-73
2021/12/01 05:13:10;;;;;;;2.30;2.10;;;6.30;99.90;;;;;;5101694;27;20203;-72
2021/12/01 05:15:37;;;;;;;2.10;2.00;;;6.30;99.90;;;;;;5102636;28;20902;-72
2021/12/01 05:18:05;;;;;;;2.60;2.40;;;6.30;99.90;;;;;;5105532;28;20291;-72
2021/12/01 05:20:35;;;;;;;2.65;2.55;;;6.30;99.90;;;;;;5124881;28;20196;-71
2021/12/01 05:23:03;;;;;;;2.90;2.70;;;6.30;99.90;;;;;;5110705;28;20286;-72
2021/12/01 05:25:31;;;;;;;3.95;3.65;;;6.30;99.90;;;;;;5100818;28;20295;-72
2021/12/01 05:28:00;;;;;;;3.05;2.75;;;6.30;99.90;;;;;;5100282;27;20632;-72
2021/12/01 05:30:28;;;;;;;4.18;3.15;;;6.40;99.90;;;;;;5100846;28;20307;-74
2021/12/01 05:33:03;;;;;;;2.78;2.67;;;6.40;99.90;;;;;;5100587;28;20286;-74
2021/12/01 05:35:33;;;;;;;4.78;2.90;;;6.40;99.90;;;;;;5100728;28;20195;-73
2021/12/01 05:38:01;;;;;;;3.50;3.20;;;6.40;99.90;;;;;;5100805;28;20207;-73
2021/12/01 05:40:29;;;;;;;2.70;2.58;;;6.50;99.90;;;;;;5100270;28;20196;-73
2021/12/01 05:42:57;;;;;;;3.35;3.10;;;6.60;99.90;;;;;;5099636;28;20235;-73
2021/12/01 05:45:26;;;;;;;3.78;3.10;;;6.50;99.90;;;;;;5100397;28;20196;-74
2021/12/01 05:47:54;;;;;;;6.20;4.05;;;6.50;99.90;;;;;;5100025;28;20199;-72
2021/12/01 05:50:23;;;;;;;4.75;4.18;;;6.60;99.90;;;;;;5099832;28;20299;-74
2021/12/01 05:52:51;;;;;;;3.53;3.22;;;6.60;99.90;;;;;;5099417;28;20738;-73
2021/12/01 05:55:19;;;;;;;3.60;3.30;;;6.60;99.90;;;;;;5099611;28;20192;-74
2021/12/01 05:57:47;;;;;;;4.32;3.75;;;6.70;99.90;;;;;;5099317;28;20690;-74
2021/12/01 06:00:16;;;;;;;4.30;3.80;;;6.70;99.90;;;;;;5099566;28;20253;-75
2021/12/01 06:02:49;;;;;;;4.32;4.03;;;6.80;99.90;;;;;;5098633;28;20270;-74
2021/12/01 06:05:17;;;;;;;3.70;3.40;;;6.80;99.90;;;;;;5099436;28;20253;-74
2021/12/01 06:07:45;;;;;;;4.20;3.90;;;6.90;99.90;;;;;;5097951;28;20569;-74
2021/12/01 06:10:13;;;;;;;4.70;4.28;;;6.90;99.90;;;;;;5099092;28;20311;-74
2021/12/01 06:12:42;;;;;;;3.78;3.58;;;6.90;99.90;;;;;;5099105;28;20331;-74
2021/12/01 06:15:13;;;;;;;5.70;5.20;;;7.00;99.90;;;;;;5098920;27;20219;-73
2021/12/01 06:17:41;;;;;;;4.72;4.32;;;7.10;99.90;;;;;;5099793;28;20747;-74
2021/12/01 06:20:12;;;;;;;4.55;4.15;;;7.10;99.90;;;;;;5099716;28;20819;-74
2021/12/01 06:22:41;;;;;;;4.93;4.50;;;7.10;99.90;;;;;;5098958;28;20680;-74
2021/12/01 06:25:09;;;;;;;4.53;4.05;;;7.20;99.90;;;;;;5099018;28;20196;-74
2021/12/01 06:27:38;;;;;;;5.10;4.65;;;7.30;99.90;;;;;;5096369;28;20703;-74
2021/12/01 06:30:08;;;;;;;5.22;4.72;;;7.40;99.90;;;;;;5098716;28;20411;-75
2021/12/01 06:32:36;;;;;;;5.85;5.35;;;7.50;99.90;;;;;;5078935;28;20238;-75
2021/12/01 06:35:05;;;;;;;6.32;5.22;;;7.50;99.90;;;;;;5083940;28;20288;-74
2021/12/01 06:37:35;;;;;;;6.03;5.43;;;7.60;99.90;;;;;;5098641;28;20201;-72
2021/12/01 06:40:03;;;;;;;5.68;5.00;;;7.70;99.90;;;;;;5099137;28;20447;-72
2021/12/01 06:42:31;;;;;;;5.88;5.30;;;7.70;99.90;;;;;;5099399;28;20217;-72
2021/12/01 06:44:59;;;;;;;6.57;5.72;;;7.80;99.90;;;;;;5103915;28;20223;-72
2021/12/01 06:47:27;;;;;;;5.85;5.07;;;7.90;99.90;;;;;;5106876;28;20260;-71
2021/12/01 06:49:55;;;;;;;5.60;4.78;;;7.90;99.90;;;;;;5099716;28;20228;-71
2021/12/01 06:52:27;;;;;;;5.15;4.40;;;8.00;99.90;;;;;;5098357;27;20851;-71
2021/12/01 06:54:57;;;;;;;5.00;4.50;;;8.10;99.90;;;;;;5099372;28;20202;-69
2021/12/01 06:57:25;;;;;;;6.35;4.20;;;8.20;99.90;;;;;;5099598;27;20199;-71
2021/12/01 06:59:52;;;;;;;4.78;4.10;;;8.30;99.90;;;;;;5099705;28;20220;-71
2021/12/01 07:02:21;;;;;;;4.72;4.20;;;8.40;99.90;;;;;;5100036;28;20395;-70
2021/12/01 07:04:49;;;;;;;4.97;4.35;;;8.50;99.90;;;;;;5099074;28;20317;-69
2021/12/01 07:07:17;;;;;;;4.25;3.95;;;8.60;99.90;;;;;;5099555;28;20204;-72
2021/12/01 07:09:49;;;;;;;4.20;3.90;;;8.60;99.90;;;;;;5100578;28;20246;-69
2021/12/01 07:12:18;;;;;;;4.43;4.03;;;8.70;99.90;;;;;;5100793;28;20258;-69
2021/12/01 07:14:46;;;;;;;3.60;3.30;;;8.70;99.90;;;;;;5100806;28;20202;-71
2021/12/01 07:17:14;;;;;;;4.53;4.10;;;8.70;99.90;;;;;;5101078;28;20197;-72
2021/12/01 07:19:43;;;;;;;3.92;3.55;;;8.70;99.90;;;;;;5100400;28;20267;-72
2021/12/01 07:22:11;;;;;;;4.05;3.67;;;8.70;99.90;;;;;;5100929;28;20290;-73
2021/12/01 07:24:39;;;;;;;3.47;3.13;;;8.70;99.90;;;;;;5103037;28;20216;-72
2021/12/01 07:27:12;;;;;;;7.53;3.97;;;8.80;99.90;;;;;;5098560;28;20269;-72
2021/12/01 07:29:42;;;;;;;5.53;4.10;;;9.00;99.90;;;;;;5098765;28;20311;-72
2021/12/01 07:32:12;;;;;;;4.85;4.45;;;9.20;99.90;;;;;;5098684;28;20219;-77
2021/12/01 07:34:43;;;;;;;5.00;4.40;;;9.30;99.90;;;;;;5099896;28;20753;-74
2021/12/01 07:37:13;;;;;;;4.35;4.00;;;9.50;99.90;;;;;;5098706;28;20199;-75
2021/12/01 07:39:41;;;;;;;4.88;4.47;;;9.60;99.90;;;;;;5101361;28;20252;-74
2021/12/01 07:42:10;;;;;;;4.80;4.40;;;9.70;99.90;;;;;;5110868;28;20285;-74
2021/12/01 07:44:38;;;;;;;5.28;4.65;;;9.80;99.90;;;;;;5121634;28;20367;-74
2021/12/01 07:47:08;;;;;;;4.57;4.28;;;9.80;99.90;;;;;;5110501;28;20199;-72
2021/12/01 07:49:36;;;;;;;5.13;4.68;;;9.80;99.90;;;;;;5105621;28;20219;-74
2021/12/01 07:52:07;;;;;;;4.55;4.18;;;9.90;99.90;;;;;;5104533;28;20594;-74
2021/12/01 07:54:36;;;;;;;4.03;3.72;;;9.90;99.90;;;;;;5103720;27;20313;-74
2021/12/01 07:57:05;;;;;;;3.88;3.47;;;10.00;99.90;;;;;;5108007;28;20259;-81
2021/12/01 07:59:33;;;;;;;3.85;3.65;;;10.00;99.90;;;;;;5106826;28;20227;-74
2021/12/01 08:02:01;;;;;;;2.92;2.83;;;10.10;99.90;;;;;;5083487;28;20192;-76
2021/12/01 08:04:31;;;;;;;3.70;3.40;;;10.00;99.90;;;;;;5086969;28;20204;-75
2021/12/01 08:07:00;;;;;;;3.03;2.92;;;10.00;99.90;;;;;;5103409;28;20544;-75
2021/12/01 08:09:28;;;;;;;2.78;2.50;;;10.00;99.90;;;;;;5101425;28;20227;-76
2021/12/01 08:11:57;;;;;;;2.88;2.47;;;10.00;99.90;;;;;;5101209;28;20321;-77
2021/12/01 08:14:24;;;;;;;3.78;2.78;;;10.00;99.90;;;;;;5100852;28;20195;-74
2021/12/01 08:16:53;;;;;;;1.80;1.70;;;10.00;99.90;;;;;;5101663;28;20383;-74
2021/12/01 08:19:21;;;;;;;4.18;2.25;;;10.00;99.90;;;;;;5100305;28;20203;-74
2021/12/01 08:21:51;;;;;;;1.65;1.65;;;10.00;99.90;;;;;;5099826;27;20203;-74
2021/12/01 08:24:19;;;;;;;1.98;1.90;;;10.10;99.90;;;;;;5100785;28;20209;-71
2021/12/01 08:26:49;;;;;;;2.38;2.28;;;10.00;99.90;;;;;;5079874;28;20770;-73
2021/12/01 08:29:18;;;;;;;2.00;2.00;;;9.90;99.90;;;;;;5081860;28;20222;-74
2021/12/01 08:31:46;;;;;;;1.85;1.75;;;9.70;99.90;;;;;;5082081;28;20208;-72
2021/12/01 08:34:15;;;;;;;2.40;2.30;;;9.50;99.90;;;;;;5084738;28;20218;-72
2021/12/01 08:36:46;;;;;;;2.15;2.05;;;9.30;99.90;;;;;;5086035;28;20232;-72
2021/12/01 08:39:15;;;;;;;2.30;2.20;;;9.20;99.90;;;;;;5093714;28;20208;-72
2021/12/01 08:41:43;;;;;;;3.25;3.08;;;9.20;99.90;;;;;;5102063;28;20232;-73
2021/12/01 08:44:11;;;;;;;3.50;3.33;;;9.10;99.90;;;;;;5105734;28;20775;-72
2021/12/01 08:46:39;;;;;;;3.03;2.92;;;9.00;99.90;;;;;;5105039;28;20231;-72
2021/12/01 08:49:07;;;;;;;3.00;2.80;;;9.00;99.90;;;;;;5103722;28;20535;-72
2021/12/01 08:51:35;;;;;;;2.83;2.65;;;8.90;99.90;;;;;;5099855;28;20259;-72
2021/12/01 08:54:04;;;;;;;3.00;2.80;;;8.90;99.90;;;;;;5097557;28;20605;-73
2021/12/01 08:56:33;;;;;;;3.40;3.20;;;8.90;99.90;;;;;;5099659;28;20738;-72
2021/12/01 08:59:02;;;;;;;2.95;2.85;;;8.90;99.90;;;;;;5100298;28;20218;-73
2021/12/01 09:01:30;;;;;;;3.25;3.00;;;8.90;99.90;;;;;;5099483;28;20194;-73
2021/12/01 09:03:58;;;;;;;2.55;2.45;;;8.90;99.90;;;;;;5100456;28;20863;-73
2021/12/01 09:06:26;;;;;;;3.15;2.97;;;8.90;99.90;;;;;;5101628;28;20226;-73
2021/12/01 09:08:54;;;;;;;2.90;2.70;;;8.90;99.90;;;;;;5101254;28;20399;-73
2021/12/01 09:11:22;;;;;;;3.30;3.10;;;8.90;99.90;;;;;;5100199;28;20196;-73
2021/12/01 09:13:51;;;;;;;3.50;3.17;;;8.80;99.90;;;;;;5099741;27;20728;-72
2021/12/01 09:16:22;;;;;;;3.67;3.38;;;8.80;99.90;;;;;;5099619;28;20202;-73
2021/12/01 09:18:50;;;;;;;3.70;3.30;;;8.80;99.90;;;;;;5113518;28;20310;-73
2021/12/01 09:21:18;;;;;;;3.53;3.22;;;8.80;99.90;;;;;;5103110;28;20643;-72
2021/12/01 09:23:46;;;;;;;3.38;3.10;;;8.80;99.90;;;;;;5101643;28;20186;-74
2021/12/01 09:26:14;;;;;;;3.17;2.97;;;8.80;99.90;;;;;;5101465;28;20236;-73
2021/12/01 09:28:42;;;;;;;3.65;3.35;;;8.70;99.90;;;;;;5100552;28;20881;-77
2021/12/01 09:31:11;;;;;;;3.00;2.90;;;8.70;99.90;;;;;;5107738;27;20344;-80
2021/12/01 09:33:39;;;;;;;3.17;2.97;;;8.70;99.90;;;;;;5112083;28;20697;-80
2021/12/01 09:36:07;;;;;;;3.20;3.00;;;8.70;99.90;;;;;;5112476;27;20854;-81
2021/12/01 09:38:35;;;;;;;3.15;2.85;;;8.70;99.90;;;;;;5110336;28;20222;-78
2021/12/01 09:41:04;;;;;;;3.50;3.20;;;8.60;99.90;;;;;;5108139;28;20198;-79
2021/12/01 09:43:32;;;;;;;3.78;3.58;;;8.70;99.90;;;;;;5112012;28;20253;-79
2021/12/01 09:46:03;;;;;;;4.05;3.55;;;8.70;99.90;;;;;;5111193;28;20202;-81
2021/12/01 09:48:34;;;;;;;3.22;3.03;;;8.70;99.90;;;;;;5108875;27;20236;-79
2021/12/01 09:51:13;;;;;;;3.45;3.25;;;8.70;99.90;;;;;;5109761;28;20209;-80
2021/12/01 09:53:41;;;;;;;2.95;2.75;;;8.60;99.90;;;;;;5108544;28;20218;-79
2021/12/01 09:56:09;;;;;;;2.42;2.33;;;8.70;99.90;;;;;;5112297;28;20217;-78
2021/12/01 09:58:38;;;;;;;2.55;2.45;;;8.70;99.90;;;;;;5118863;28;20245;-83
2021/12/01 10:01:08;;;;;;;2.38;2.20;;;8.80;99.90;;;;;;5120973;28;20219;-83
2021/12/01 10:03:38;;;;;;;2.13;2.03;;;8.80;99.90;;;;;;5117107;28;20188;-81
2021/12/01 10:06:10;;;;;;;2.25;2.15;;;8.80;99.90;;;;;;5116006;28;20194;-82
2021/12/01 10:08:40;;;;;;;2.40;2.30;;;8.80;99.90;;;;;;5121875;28;20225;-84
2021/12/01 10:11:10;;;;;;;2.45;2.35;;;8.80;99.90;;;;;;5131450;28;20202;-85
2021/12/01 10:13:40;;;;;;;1.80;1.80;;;8.80;99.90;;;;;;5117607;28;20214;-85
2021/12/01 10:16:10;;;;;;;2.55;2.45;;;8.80;99.90;;;;;;5116668;27;20203;-85
2021/12/01 10:18:42;;;;;;;2.20;2.10;;;8.90;99.90;;;;;;5114163;28;20223;-78
2021/12/01 10:21:14;;;;;;;2.70;2.60;;;8.90;99.90;;;;;;5111636;28;20434;-80
2021/12/01 10:23:47;;;;;;;2.30;2.20;;;8.90;99.90;;;;;;5108441;28;20302;-80
2021/12/01 10:26:18;;;;;;;3.00;2.80;;;8.90;99.90;;;;;;5106330;28;20234;-78
2021/12/01 10:28:48;;;;;;;1.85;1.75;;;9.00;99.90;;;;;;5108201;28;20254;-79
2021/12/01 10:31:35;;;;;;;1.85;1.80;;;9.00;99.90;;;;;;5108183;28;20202;-80
2021/12/01 10:34:24;;;;;;;2.28;1.90;;;9.00;99.90;;;;;;5105332;28;20231;-81
2021/12/01 10:37:08;;;;;;;1.63;1.52;;;9.00;99.90;;;;;;5104180;28;20227;-79
2021/12/01 10:39:36;;;;;;;1.88;1.77;;;9.00;99.90;;;;;;5107674;28;20331;-80
2021/12/01 10:42:06;;;;;;;1.80;1.70;;;9.00;99.90;;;;;;5107891;28;20453;-79
2021/12/01 10:44:35;;;;;;;1.80;1.70;;;9.00;99.90;;;;;;5105354;28;20523;-79
2021/12/01 10:47:09;;;;;;;2.03;1.92;;;9.00;99.90;;;;;;5103638;28;20644;-79
2021/12/01 10:49:43;;;;;;;1.70;1.70;;;9.10;99.90;;;;;;5104040;28;20221;-80
2021/12/01 10:52:29;;;;;;;1.58;1.58;;;9.00;99.90;;;;;;5102380;28;20384;-76
2021/12/01 10:55:04;;;;;;;1.40;1.40;;;9.00;99.90;;;;;;5080784;28;20767;-76
2021/12/01 10:57:32;;;;;;;1.70;1.60;;;9.00;99.90;;;;;;5081644;28;20263;-79
2021/12/01 11:00:02;;;;;;;1.80;1.70;;;9.00;99.90;;;;;;5103648;28;20239;-79
2021/12/01 11:02:35;;;;;;;2.00;1.90;;;9.10;99.90;;;;;;5104491;28;20226;-77
2021/12/01 11:05:06;;;;;;;2.00;1.90;;;9.10;99.90;;;;;;5102267;28;20846;-78
2021/12/01 11:07:35;;;;;;;2.10;1.90;;;9.10;99.90;;;;;;5103400;28;20194;-78
2021/12/01 11:10:14;;;;;;;1.73;1.63;;;9.10;99.90;;;;;;5104481;28;20226;-73
2021/12/01 11:12:42;;;;;;;1.70;1.70;;;9.00;99.90;;;;;;5098935;27;20289;-72
2021/12/01 11:15:25;;;;;;;1.83;1.73;;;9.00;99.90;;;;;;5098798;28;20252;-72
2021/12/01 11:17:55;;;;;;;1.80;1.70;;;9.00;99.90;;;;;;5098712;28;20263;-72
2021/12/01 11:20:39;;;;;;;1.73;1.63;;;9.10;99.90;;;;;;5098196;28;20233;-71
2021/12/01 11:23:13;;;;;;;1.50;1.40;;;9.10;99.90;;;;;;5098476;28;20229;-72
2021/12/01 11:25:43;;;;;;;1.65;1.65;;;9.10;99.90;;;;;;5097952;28;20221;-72
2021/12/01 11:28:14;;;;;;;4.82;2.15;;;9.10;99.90;;;;;;5098686;28;20284;-71
2021/12/01 11:30:45;;;;;;;1.60;1.60;;;9.20;99.90;;;;;;5098470;28;20468;-71
2021/12/01 11:33:17;;;;;;;1.88;1.77;;;9.10;99.90;;;;;;5098821;28;20275;-72
2021/12/01 11:35:48;;;;;;;2.10;1.90;;;9.20;99.90;;;;;;5099084;28;20289;-72
2021/12/01 11:38:16;;;;;;;1.95;1.60;;;9.20;99.90;;;;;;5099096;28;20738;-71
2021/12/01 11:40:46;;;;;;;1.70;1.60;;;9.20;99.90;;;;;;5098615;28;20484;-71
2021/12/01 11:43:16;;;;;;;1.75;1.40;;;9.20;99.90;;;;;;5097836;27;20285;-72
2021/12/01 11:45:46;;;;;;;1.42;1.42;;;9.20;99.90;;;;;;5098240;28;20205;-72
2021/12/01 11:48:16;;;;;;;1.08;1.08;;;9.20;99.90;;;;;;5101698;28;20775;-72
2021/12/01 11:50:54;;;;;;;3.78;1.63;;;9.20;99.90;;;;;;5106289;28;20269;-71
2021/12/01 11:53:24;;;;;;;1.35;1.25;;;9.20;99.90;;;;;;5106661;28;20720;-72
2021/12/01 11:55:57;;;;;;;1.20;1.10;;;9.20;99.90;;;;;;5096599;28;20842;-72
2021/12/01 11:58:44;;;;;;;1.00;1.00;;;9.20;99.90;;;;;;5099918;28;20283;-71
2021/12/01 12:01:41;;;;;;;1.20;1.20;;;9.20;99.90;;;;;;5096173;28;20234;-72
2021/12/01 12:04:25;;;;;;;1.15;1.15;;;9.30;99.90;;;;;;5096275;28;20287;-72
2021/12/01 12:07:01;;;;;;;1.13;1.13;;;9.30;99.90;;;;;;5090016;28;20829;-72
2021/12/01 12:10:08;;;;;;;0.90;0.90;;;9.30;99.90;;;;;;5096602;28;20225;-72
2021/12/01 12:13:02;;;;;;;1.30;1.30;;;9.40;99.90;;;;;;5097820;28;20734;-72
2021/12/01 12:15:42;;;;;;;1.27;1.17;;;9.40;99.90;;;;;;5092176;28;20885;-72
2021/12/01 12:18:12;;;;;;;1.70;1.60;;;9.40;99.90;;;;;;5098464;28;20670;-72
2021/12/01 12:20:45;;;;;;;1.60;1.60;;;9.40;99.90;;;;;;5098454;28;20201;-72
2021/12/01 12:23:16;;;;;;;2.03;1.92;;;9.40;99.90;;;;;;5098631;28;20216;-72
2021/12/01 12:25:57;;;;;;;1.85;1.70;;;9.40;99.90;;;;;;5099050;28;20206;-72
2021/12/01 12:28:36;;;;;;;1.50;1.50;;;9.40;99.90;;;;;;5102614;28;20272;-71
2021/12/01 12:31:07;;;;;;;1.85;1.70;;;9.30;99.90;;;;;;5105580;28;20191;-70
2021/12/01 12:33:38;;;;;;;2.35;1.10;;;9.40;99.90;;;;;;5104285;28;20896;-71
2021/12/01 12:36:08;;;;;;;3.35;2.75;;;9.40;99.90;;;;;;5116882;28;20233;-70
2021/12/01 12:38:38;;;;;;;2.03;1.20;;;9.50;99.90;;;;;;5116071;28;20266;-70
2021/12/01 12:41:12;;;;;;;1.35;1.35;;;9.50;99.90;;;;;;5114928;28;20803;-70
2021/12/01 12:43:41;;;;;;;0.90;0.90;;;9.50;99.90;;;;;;5084820;28;20200;-72
2021/12/01 12:46:12;;;;;;;1.00;1.00;;;9.60;99.90;;;;;;5086159;28;20234;-70
2021/12/01 12:48:42;;;;;;;1.80;0.95;;;9.60;99.90;;;;;;5103233;27;20530;-72
2021/12/01 12:51:16;;;;;;;1.63;0.77;;;9.70;99.90;;;;;;5102692;28;20194;-72
2021/12/01 12:54:15;;;;;;;1.00;0.82;;;9.70;99.90;;;;;;5106168;28;20242;-72
2021/12/01 12:56:50;;;;;;;1.70;0.70;;;9.80;99.90;;;;;;5108393;28;20202;-72
2021/12/01 12:59:21;;;;;;;2.45;1.00;;;9.80;99.90;;;;;;5107713;28;20218;-71
2021/12/01 13:01:50;;;;;;;0.68;0.68;;;9.90;99.90;;;;;;5106516;27;20262;-70
2021/12/01 13:04:54;;;;;;;0.60;0.60;;;9.90;99.90;;;;;;5101084;28;20395;-71
2021/12/01 13:07:38;;;;;;;0.93;0.82;;;9.80;99.90;;;;;;5101590;28;20537;-71
2021/12/01 13:10:12;;;;;;;2.35;1.15;;;9.90;99.90;;;;;;5101953;28;20215;-71
2021/12/01 13:12:50;;;;;;;1.65;1.10;;;9.80;99.90;;;;;;5100805;27;20279;-71
2021/12/01 13:15:23;;;;;;;1.05;0.70;;;9.80;99.90;;;;;;5101214;28;20301;-72
2021/12/01 13:17:53;;;;;;;1.92;1.00;;;9.70;99.90;;;;;;5101079;28;20205;-73